sensor_id;sensor_type;location;lat;lon;timestamp;P1;durP1;ratioP1;P2;durP2;ratioP2
5022;SDS011;2530;47.990;7.866;2022-12-10T00:01:23;27.35;;;22.15;;
5022;SDS011;2530;47.990;7.866;2022-12-10T00:03:49;28.02;;;23.20;;
5022;SDS011;2530;47.990;7.866;2022-12-10T00:06:16;26.60;;;22.57;;
5022;SDS011;2530;47.990;7.866;2022-12-10T00:08:43;30.57;;;22.60;;
5022;SDS011;2530;47.990;7.866;2022-12-10T00:11:10;29.77;;;22.17;;
5022;SDS011;2530;47.990;7.866;2022-12-10T00:13:36;27.38;;;22.42;;
5022;SDS011;2530;47.990;7.866;2022-12-10T00:16:04;27.52;;;22.88;;
5022;SDS011;2530;47.990;7.866;2022-12-10T00:18:32;28.20;;;23.20;;
5022;SDS011;2530;47.990;7.866;2022-12-10T00:21:01;24.00;;;20.63;;
5022;SDS011;2530;47.990;7.866;2022-12-10T00:23:36;28.67;;;22.20;;
5022;SDS011;2530;47.990;7.866;2022-12-10T00:26:03;26.05;;;22.08;;
5022;SDS011;2530;47.990;7.866;2022-12-10T00:28:43;27.67;;;21.98;;
5022;SDS011;2530;47.990;7.866;2022-12-10T00:31:14;28.88;;;22.70;;
5022;SDS011;2530;47.990;7.866;2022-12-10T00:33:44;27.93;;;22.30;;
5022;SDS011;2530;47.990;7.866;2022-12-10T00:36:12;24.37;;;21.30;;
5022;SDS011;2530;47.990;7.866;2022-12-10T00:38:39;26.23;;;21.45;;
5022;SDS011;2530;47.990;7.866;2022-12-10T00:41:05;26.55;;;21.08;;
5022;SDS011;2530;47.990;7.866;2022-12-10T00:43:31;26.15;;;20.90;;
5022;SDS011;2530;47.990;7.866;2022-12-10T00:45:57;27.42;;;22.23;;
5022;SDS011;2530;47.990;7.866;2022-12-10T00:48:23;30.10;;;22.65;;
5022;SDS011;2530;47.990;7.866;2022-12-10T00:50:56;26.00;;;22.05;;
5022;SDS011;2530;47.990;7.866;2022-12-10T00:53:23;28.50;;;22.63;;
5022;SDS011;2530;47.990;7.866;2022-12-10T00:55:49;29.58;;;23.20;;
5022;SDS011;2530;47.990;7.866;2022-12-10T00:58:16;26.97;;;23.07;;
5022;SDS011;2530;47.990;7.866;2022-12-10T01:00:41;27.70;;;22.27;;
5022;SDS011;2530;47.990;7.866;2022-12-10T01:03:07;27.40;;;22.20;;
5022;SDS011;2530;47.990;7.866;2022-12-10T01:05:33;26.10;;;21.80;;
5022;SDS011;2530;47.990;7.866;2022-12-10T01:07:58;25.40;;;21.30;;
5022;SDS011;2530;47.990;7.866;2022-12-10T01:10:24;27.53;;;21.77;;
5022;SDS011;2530;47.990;7.866;2022-12-10T01:12:49;27.80;;;21.53;;
5022;SDS011;2530;47.990;7.866;2022-12-10T01:15:15;27.27;;;21.03;;
5022;SDS011;2530;47.990;7.866;2022-12-10T01:17:40;26.40;;;21.03;;
5022;SDS011;2530;47.990;7.866;2022-12-10T01:20:06;29.70;;;22.20;;
5022;SDS011;2530;47.990;7.866;2022-12-10T01:22:31;26.80;;;21.67;;
5022;SDS011;2530;47.990;7.866;2022-12-10T01:24:57;27.58;;;20.98;;
5022;SDS011;2530;47.990;7.866;2022-12-10T01:27:22;26.58;;;21.63;;
5022;SDS011;2530;47.990;7.866;2022-12-10T01:29:48;27.00;;;23.85;;
5022;SDS011;2530;47.990;7.866;2022-12-10T01:32:14;31.02;;;23.85;;
5022;SDS011;2530;47.990;7.866;2022-12-10T01:34:39;28.38;;;23.20;;
5022;SDS011;2530;47.990;7.866;2022-12-10T01:37:05;31.88;;;24.65;;
5022;SDS011;2530;47.990;7.866;2022-12-10T01:39:30;26.73;;;22.38;;
5022;SDS011;2530;47.990;7.866;2022-12-10T01:41:57;29.00;;;23.50;;
5022;SDS011;2530;47.990;7.866;2022-12-10T01:46:50;26.40;;;21.25;;
5022;SDS011;2530;47.990;7.866;2022-12-10T01:49:18;25.92;;;22.83;;
5022;SDS011;2530;47.990;7.866;2022-12-10T01:51:56;26.98;;;21.75;;
5022;SDS011;2530;47.990;7.866;2022-12-10T01:54:23;26.55;;;21.33;;
5022;SDS011;2530;47.990;7.866;2022-12-10T01:56:58;24.45;;;21.15;;
5022;SDS011;2530;47.990;7.866;2022-12-10T01:59:25;27.63;;;21.98;;
5022;SDS011;2530;47.990;7.866;2022-12-10T02:04:53;25.65;;;21.88;;
5022;SDS011;2530;47.990;7.866;2022-12-10T02:13:18;30.90;;;23.90;;
5022;SDS011;2530;47.990;7.866;2022-12-10T02:16:06;28.60;;;22.00;;
5022;SDS011;2530;47.990;7.866;2022-12-10T02:21:05;26.55;;;22.35;;
5022;SDS011;2530;47.990;7.866;2022-12-10T02:23:48;29.90;;;23.00;;
5022;SDS011;2530;47.990;7.866;2022-12-10T02:26:22;26.83;;;21.90;;
5022;SDS011;2530;47.990;7.866;2022-12-10T02:31:39;28.55;;;24.15;;
5022;SDS011;2530;47.990;7.866;2022-12-10T02:34:12;31.77;;;25.27;;
5022;SDS011;2530;47.990;7.866;2022-12-10T02:36:39;30.47;;;23.77;;
5022;SDS011;2530;47.990;7.866;2022-12-10T02:39:10;29.50;;;23.20;;
5022;SDS011;2530;47.990;7.866;2022-12-10T02:41:39;30.73;;;24.90;;
5022;SDS011;2530;47.990;7.866;2022-12-10T02:44:08;28.87;;;22.57;;
5022;SDS011;2530;47.990;7.866;2022-12-10T02:46:36;27.70;;;21.70;;
5022;SDS011;2530;47.990;7.866;2022-12-10T02:49:03;27.42;;;23.10;;
5022;SDS011;2530;47.990;7.866;2022-12-10T02:51:30;28.83;;;23.10;;
5022;SDS011;2530;47.990;7.866;2022-12-10T02:54:03;28.07;;;23.30;;
5022;SDS011;2530;47.990;7.866;2022-12-10T03:04:44;24.85;;;22.15;;
5022;SDS011;2530;47.990;7.866;2022-12-10T03:07:18;31.15;;;23.42;;
5022;SDS011;2530;47.990;7.866;2022-12-10T03:09:56;31.50;;;23.90;;
5022;SDS011;2530;47.990;7.866;2022-12-10T03:12:30;28.38;;;22.52;;
5022;SDS011;2530;47.990;7.866;2022-12-10T03:15:00;25.27;;;21.45;;
5022;SDS011;2530;47.990;7.866;2022-12-10T03:17:30;28.60;;;23.42;;
5022;SDS011;2530;47.990;7.866;2022-12-10T03:19:57;26.58;;;22.55;;
5022;SDS011;2530;47.990;7.866;2022-12-10T03:22:23;27.38;;;23.02;;
5022;SDS011;2530;47.990;7.866;2022-12-10T03:24:49;27.17;;;22.10;;
5022;SDS011;2530;47.990;7.866;2022-12-10T03:27:16;24.77;;;21.27;;
5022;SDS011;2530;47.990;7.866;2022-12-10T03:29:46;25.98;;;22.63;;
5022;SDS011;2530;47.990;7.866;2022-12-10T03:32:15;26.00;;;21.48;;
5022;SDS011;2530;47.990;7.866;2022-12-10T03:34:43;31.60;;;23.63;;
5022;SDS011;2530;47.990;7.866;2022-12-10T03:37:09;27.05;;;21.88;;
5022;SDS011;2530;47.990;7.866;2022-12-10T03:39:36;27.10;;;22.10;;
5022;SDS011;2530;47.990;7.866;2022-12-10T03:42:03;28.75;;;22.77;;
5022;SDS011;2530;47.990;7.866;2022-12-10T03:44:30;28.10;;;23.77;;
5022;SDS011;2530;47.990;7.866;2022-12-10T03:46:58;26.00;;;22.85;;
5022;SDS011;2530;47.990;7.866;2022-12-10T03:49:24;27.40;;;22.17;;
5022;SDS011;2530;47.990;7.866;2022-12-10T03:51:49;26.30;;;22.57;;
5022;SDS011;2530;47.990;7.866;2022-12-10T03:54:15;27.30;;;22.77;;
5022;SDS011;2530;47.990;7.866;2022-12-10T03:56:41;25.77;;;21.92;;
5022;SDS011;2530;47.990;7.866;2022-12-10T03:59:06;25.70;;;21.58;;
5022;SDS011;2530;47.990;7.866;2022-12-10T04:01:32;29.17;;;22.90;;
5022;SDS011;2530;47.990;7.866;2022-12-10T04:03:57;27.23;;;22.15;;
5022;SDS011;2530;47.990;7.866;2022-12-10T04:06:23;27.50;;;22.65;;
5022;SDS011;2530;47.990;7.866;2022-12-10T04:08:49;29.52;;;21.95;;
5022;SDS011;2530;47.990;7.866;2022-12-10T04:11:16;29.45;;;22.98;;
5022;SDS011;2530;47.990;7.866;2022-12-10T04:13:42;27.35;;;22.52;;
5022;SDS011;2530;47.990;7.866;2022-12-10T04:16:27;30.63;;;23.92;;
5022;SDS011;2530;47.990;7.866;2022-12-10T04:18:54;25.80;;;22.25;;
5022;SDS011;2530;47.990;7.866;2022-12-10T04:21:21;27.50;;;22.53;;
5022;SDS011;2530;47.990;7.866;2022-12-10T04:24:25;27.58;;;22.98;;
5022;SDS011;2530;47.990;7.866;2022-12-10T04:27:16;24.02;;;21.25;;
5022;SDS011;2530;47.990;7.866;2022-12-10T04:29:45;25.95;;;21.10;;
5022;SDS011;2530;47.990;7.866;2022-12-10T04:32:11;26.23;;;21.00;;
5022;SDS011;2530;47.990;7.866;2022-12-10T04:34:36;28.30;;;22.50;;
5022;SDS011;2530;47.990;7.866;2022-12-10T04:37:02;24.00;;;21.20;;
5022;SDS011;2530;47.990;7.866;2022-12-10T04:39:28;24.13;;;21.33;;
5022;SDS011;2530;47.990;7.866;2022-12-10T04:41:54;24.08;;;20.98;;
5022;SDS011;2530;47.990;7.866;2022-12-10T04:44:20;23.95;;;20.10;;
5022;SDS011;2530;47.990;7.866;2022-12-10T04:46:46;26.23;;;21.40;;
5022;SDS011;2530;47.990;7.866;2022-12-10T04:49:13;28.30;;;22.80;;
5022;SDS011;2530;47.990;7.866;2022-12-10T04:51:39;23.30;;;20.15;;
5022;SDS011;2530;47.990;7.866;2022-12-10T04:54:05;27.90;;;22.50;;
5022;SDS011;2530;47.990;7.866;2022-12-10T04:56:31;26.90;;;21.70;;
5022;SDS011;2530;47.990;7.866;2022-12-10T04:58:57;24.57;;;20.80;;
5022;SDS011;2530;47.990;7.866;2022-12-10T05:01:24;26.35;;;21.33;;
5022;SDS011;2530;47.990;7.866;2022-12-10T05:03:50;25.80;;;20.77;;
5022;SDS011;2530;47.990;7.866;2022-12-10T05:06:15;25.60;;;21.27;;
5022;SDS011;2530;47.990;7.866;2022-12-10T05:08:43;25.83;;;20.38;;
5022;SDS011;2530;47.990;7.866;2022-12-10T05:11:10;25.50;;;20.60;;
5022;SDS011;2530;47.990;7.866;2022-12-10T05:13:38;25.13;;;20.83;;
5022;SDS011;2530;47.990;7.866;2022-12-10T05:16:05;22.88;;;19.75;;
5022;SDS011;2530;47.990;7.866;2022-12-10T05:18:32;24.77;;;19.70;;
5022;SDS011;2530;47.990;7.866;2022-12-10T05:20:59;24.58;;;20.80;;
5022;SDS011;2530;47.990;7.866;2022-12-10T05:23:25;24.10;;;19.92;;
5022;SDS011;2530;47.990;7.866;2022-12-10T05:26:05;22.83;;;19.15;;
5022;SDS011;2530;47.990;7.866;2022-12-10T05:28:33;23.20;;;20.25;;
5022;SDS011;2530;47.990;7.866;2022-12-10T05:31:01;23.80;;;19.53;;
5022;SDS011;2530;47.990;7.866;2022-12-10T05:33:27;21.52;;;19.23;;
5022;SDS011;2530;47.990;7.866;2022-12-10T05:35:56;24.67;;;19.13;;
5022;SDS011;2530;47.990;7.866;2022-12-10T05:38:24;22.77;;;18.85;;
5022;SDS011;2530;47.990;7.866;2022-12-10T05:40:51;24.80;;;20.85;;
5022;SDS011;2530;47.990;7.866;2022-12-10T05:43:16;24.55;;;20.80;;
5022;SDS011;2530;47.990;7.866;2022-12-10T05:45:42;25.05;;;20.40;;
5022;SDS011;2530;47.990;7.866;2022-12-10T05:48:11;24.60;;;20.40;;
5022;SDS011;2530;47.990;7.866;2022-12-10T05:50:38;25.08;;;20.08;;
5022;SDS011;2530;47.990;7.866;2022-12-10T05:53:04;26.25;;;19.70;;
5022;SDS011;2530;47.990;7.866;2022-12-10T05:55:29;25.98;;;20.00;;
5022;SDS011;2530;47.990;7.866;2022-12-10T05:57:56;25.60;;;20.92;;
5022;SDS011;2530;47.990;7.866;2022-12-10T06:00:22;25.60;;;21.70;;
5022;SDS011;2530;47.990;7.866;2022-12-10T06:02:48;25.73;;;21.25;;
5022;SDS011;2530;47.990;7.866;2022-12-10T06:05:15;24.50;;;20.35;;
5022;SDS011;2530;47.990;7.866;2022-12-10T06:07:41;25.55;;;21.20;;
5022;SDS011;2530;47.990;7.866;2022-12-10T06:10:06;23.33;;;20.83;;
5022;SDS011;2530;47.990;7.866;2022-12-10T06:12:32;25.42;;;20.85;;
5022;SDS011;2530;47.990;7.866;2022-12-10T06:14:58;26.60;;;22.03;;
5022;SDS011;2530;47.990;7.866;2022-12-10T06:17:23;25.53;;;21.63;;
5022;SDS011;2530;47.990;7.866;2022-12-10T06:19:49;23.63;;;20.87;;
5022;SDS011;2530;47.990;7.866;2022-12-10T06:22:14;21.60;;;19.30;;
5022;SDS011;2530;47.990;7.866;2022-12-10T06:24:40;24.50;;;20.10;;
5022;SDS011;2530;47.990;7.866;2022-12-10T06:27:05;28.10;;;22.60;;
5022;SDS011;2530;47.990;7.866;2022-12-10T06:29:31;26.10;;;20.27;;
5022;SDS011;2530;47.990;7.866;2022-12-10T06:31:56;24.17;;;20.33;;
5022;SDS011;2530;47.990;7.866;2022-12-10T06:34:22;25.50;;;21.33;;
5022;SDS011;2530;47.990;7.866;2022-12-10T06:36:48;25.60;;;22.27;;
5022;SDS011;2530;47.990;7.866;2022-12-10T06:39:13;24.20;;;20.80;;
5022;SDS011;2530;47.990;7.866;2022-12-10T06:41:39;23.53;;;19.27;;
5022;SDS011;2530;47.990;7.866;2022-12-10T06:44:08;23.98;;;20.40;;
5022;SDS011;2530;47.990;7.866;2022-12-10T06:46:35;24.25;;;20.73;;
5022;SDS011;2530;47.990;7.866;2022-12-10T06:49:01;25.67;;;20.60;;
5022;SDS011;2530;47.990;7.866;2022-12-10T06:51:27;24.23;;;19.75;;
5022;SDS011;2530;47.990;7.866;2022-12-10T06:53:53;24.85;;;19.92;;
5022;SDS011;2530;47.990;7.866;2022-12-10T06:56:19;23.70;;;19.50;;
5022;SDS011;2530;47.990;7.866;2022-12-10T06:58:45;25.07;;;20.33;;
5022;SDS011;2530;47.990;7.866;2022-12-10T07:01:12;23.40;;;19.40;;
5022;SDS011;2530;47.990;7.866;2022-12-10T07:03:49;23.83;;;19.02;;
5022;SDS011;2530;47.990;7.866;2022-12-10T07:06:16;24.38;;;19.17;;
5022;SDS011;2530;47.990;7.866;2022-12-10T07:08:42;24.92;;;21.10;;
5022;SDS011;2530;47.990;7.866;2022-12-10T07:11:09;25.63;;;20.52;;
5022;SDS011;2530;47.990;7.866;2022-12-10T07:13:36;23.52;;;18.90;;
5022;SDS011;2530;47.990;7.866;2022-12-10T07:16:02;24.20;;;18.88;;
5022;SDS011;2530;47.990;7.866;2022-12-10T07:18:35;27.17;;;20.60;;
5022;SDS011;2530;47.990;7.866;2022-12-10T07:21:01;26.73;;;19.23;;
5022;SDS011;2530;47.990;7.866;2022-12-10T07:23:26;25.43;;;20.20;;
5022;SDS011;2530;47.990;7.866;2022-12-10T07:25:53;26.57;;;19.70;;
5022;SDS011;2530;47.990;7.866;2022-12-10T07:28:20;29.00;;;21.45;;
5022;SDS011;2530;47.990;7.866;2022-12-10T07:30:45;28.42;;;20.58;;
5022;SDS011;2530;47.990;7.866;2022-12-10T07:33:11;26.02;;;20.23;;
5022;SDS011;2530;47.990;7.866;2022-12-10T07:35:37;30.30;;;21.08;;
5022;SDS011;2530;47.990;7.866;2022-12-10T07:38:04;30.33;;;21.15;;
5022;SDS011;2530;47.990;7.866;2022-12-10T07:40:29;29.23;;;20.20;;
5022;SDS011;2530;47.990;7.866;2022-12-10T07:42:55;30.00;;;20.90;;
5022;SDS011;2530;47.990;7.866;2022-12-10T07:45:22;30.67;;;21.53;;
5022;SDS011;2530;47.990;7.866;2022-12-10T07:47:47;31.23;;;20.67;;
5022;SDS011;2530;47.990;7.866;2022-12-10T07:50:13;27.83;;;20.30;;
5022;SDS011;2530;47.990;7.866;2022-12-10T07:52:42;27.73;;;20.00;;
5022;SDS011;2530;47.990;7.866;2022-12-10T07:55:07;29.63;;;20.58;;
5022;SDS011;2530;47.990;7.866;2022-12-10T07:57:33;28.30;;;20.00;;
5022;SDS011;2530;47.990;7.866;2022-12-10T07:59:58;31.50;;;21.80;;
5022;SDS011;2530;47.990;7.866;2022-12-10T08:02:24;31.00;;;21.02;;
5022;SDS011;2530;47.990;7.866;2022-12-10T08:04:50;29.25;;;21.20;;
5022;SDS011;2530;47.990;7.866;2022-12-10T08:07:15;31.87;;;21.03;;
5022;SDS011;2530;47.990;7.866;2022-12-10T08:09:41;29.60;;;20.73;;
5022;SDS011;2530;47.990;7.866;2022-12-10T08:12:06;29.70;;;20.97;;
5022;SDS011;2530;47.990;7.866;2022-12-10T08:14:32;29.67;;;21.17;;
5022;SDS011;2530;47.990;7.866;2022-12-10T08:16:57;28.07;;;19.60;;
5022;SDS011;2530;47.990;7.866;2022-12-10T08:19:23;28.30;;;20.10;;
5022;SDS011;2530;47.990;7.866;2022-12-10T08:21:48;29.00;;;20.37;;
5022;SDS011;2530;47.990;7.866;2022-12-10T08:24:14;29.13;;;19.97;;
5022;SDS011;2530;47.990;7.866;2022-12-10T08:26:39;30.00;;;20.03;;
5022;SDS011;2530;47.990;7.866;2022-12-10T08:29:05;30.93;;;20.37;;
5022;SDS011;2530;47.990;7.866;2022-12-10T08:31:30;26.10;;;18.30;;
5022;SDS011;2530;47.990;7.866;2022-12-10T08:33:56;24.60;;;17.73;;
5022;SDS011;2530;47.990;7.866;2022-12-10T08:36:22;28.20;;;18.63;;
5022;SDS011;2530;47.990;7.866;2022-12-10T08:38:47;31.40;;;19.63;;
5022;SDS011;2530;47.990;7.866;2022-12-10T08:41:15;28.90;;;19.88;;
5022;SDS011;2530;47.990;7.866;2022-12-10T08:43:42;27.83;;;18.80;;
5022;SDS011;2530;47.990;7.866;2022-12-10T08:46:09;28.58;;;19.83;;
5022;SDS011;2530;47.990;7.866;2022-12-10T08:48:36;28.60;;;19.17;;
5022;SDS011;2530;47.990;7.866;2022-12-10T08:51:03;27.98;;;19.52;;
5022;SDS011;2530;47.990;7.866;2022-12-10T08:53:30;32.50;;;22.40;;
5022;SDS011;2530;47.990;7.866;2022-12-10T08:55:55;30.90;;;21.30;;
5022;SDS011;2530;47.990;7.866;2022-12-10T08:58:21;30.90;;;20.47;;
5022;SDS011;2530;47.990;7.866;2022-12-10T09:00:47;29.53;;;19.13;;
5022;SDS011;2530;47.990;7.866;2022-12-10T09:03:13;31.07;;;20.33;;
5022;SDS011;2530;47.990;7.866;2022-12-10T09:05:39;32.85;;;21.65;;
5022;SDS011;2530;47.990;7.866;2022-12-10T09:08:05;28.17;;;20.17;;
5022;SDS011;2530;47.990;7.866;2022-12-10T09:10:31;29.83;;;19.60;;
5022;SDS011;2530;47.990;7.866;2022-12-10T09:12:57;32.60;;;21.13;;
5022;SDS011;2530;47.990;7.866;2022-12-10T09:15:22;30.33;;;20.43;;
5022;SDS011;2530;47.990;7.866;2022-12-10T09:17:48;28.00;;;19.67;;
5022;SDS011;2530;47.990;7.866;2022-12-10T09:20:13;29.60;;;19.47;;
5022;SDS011;2530;47.990;7.866;2022-12-10T09:22:39;30.90;;;20.97;;
5022;SDS011;2530;47.990;7.866;2022-12-10T09:25:05;31.97;;;21.27;;
5022;SDS011;2530;47.990;7.866;2022-12-10T09:27:32;31.85;;;21.42;;
5022;SDS011;2530;47.990;7.866;2022-12-10T09:29:58;30.73;;;20.50;;
5022;SDS011;2530;47.990;7.866;2022-12-10T09:32:23;30.97;;;21.00;;
5022;SDS011;2530;47.990;7.866;2022-12-10T09:34:52;33.22;;;21.10;;
5022;SDS011;2530;47.990;7.866;2022-12-10T09:37:18;34.67;;;21.20;;
5022;SDS011;2530;47.990;7.866;2022-12-10T09:39:44;34.85;;;22.55;;
5022;SDS011;2530;47.990;7.866;2022-12-10T09:44:56;34.60;;;21.42;;
5022;SDS011;2530;47.990;7.866;2022-12-10T09:47:36;36.88;;;21.95;;
5022;SDS011;2530;47.990;7.866;2022-12-10T09:50:19;39.35;;;22.98;;
5022;SDS011;2530;47.990;7.866;2022-12-10T09:52:50;39.50;;;23.77;;
5022;SDS011;2530;47.990;7.866;2022-12-10T09:55:20;40.07;;;24.13;;
5022;SDS011;2530;47.990;7.866;2022-12-10T09:57:51;37.72;;;23.52;;
5022;SDS011;2530;47.990;7.866;2022-12-10T10:02:44;41.03;;;23.20;;
5022;SDS011;2530;47.990;7.866;2022-12-10T10:05:10;37.23;;;22.40;;
5022;SDS011;2530;47.990;7.866;2022-12-10T10:07:45;39.72;;;23.65;;
5022;SDS011;2530;47.990;7.866;2022-12-10T10:12:50;40.50;;;23.17;;
5022;SDS011;2530;47.990;7.866;2022-12-10T10:15:18;43.67;;;23.73;;
5022;SDS011;2530;47.990;7.866;2022-12-10T10:17:49;39.28;;;23.52;;
5022;SDS011;2530;47.990;7.866;2022-12-10T10:20:19;38.38;;;24.45;;
5022;SDS011;2530;47.990;7.866;2022-12-10T10:22:45;38.22;;;25.10;;
5022;SDS011;2530;47.990;7.866;2022-12-10T10:25:15;38.42;;;24.77;;
5022;SDS011;2530;47.990;7.866;2022-12-10T10:27:42;42.17;;;25.30;;
5022;SDS011;2530;47.990;7.866;2022-12-10T10:30:19;38.23;;;24.17;;
5022;SDS011;2530;47.990;7.866;2022-12-10T10:32:52;42.27;;;25.03;;
5022;SDS011;2530;47.990;7.866;2022-12-10T10:35:22;39.25;;;24.48;;
5022;SDS011;2530;47.990;7.866;2022-12-10T10:38:05;40.70;;;24.15;;
5022;SDS011;2530;47.990;7.866;2022-12-10T10:40:54;35.80;;;22.73;;
5022;SDS011;2530;47.990;7.866;2022-12-10T10:43:23;34.87;;;22.10;;
5022;SDS011;2530;47.990;7.866;2022-12-10T10:45:54;37.15;;;22.35;;
5022;SDS011;2530;47.990;7.866;2022-12-10T10:48:35;32.97;;;21.50;;
5022;SDS011;2530;47.990;7.866;2022-12-10T10:51:08;34.23;;;21.57;;
5022;SDS011;2530;47.990;7.866;2022-12-10T10:53:42;30.07;;;20.87;;
5022;SDS011;2530;47.990;7.866;2022-12-10T10:58:49;34.13;;;21.30;;
5022;SDS011;2530;47.990;7.866;2022-12-10T11:01:26;29.70;;;20.83;;
5022;SDS011;2530;47.990;7.866;2022-12-10T11:04:08;32.65;;;20.88;;
5022;SDS011;2530;47.990;7.866;2022-12-10T11:06:34;34.75;;;22.60;;
5022;SDS011;2530;47.990;7.866;2022-12-10T11:09:00;36.80;;;23.42;;
5022;SDS011;2530;47.990;7.866;2022-12-10T11:11:33;35.22;;;23.15;;
5022;SDS011;2530;47.990;7.866;2022-12-10T11:14:14;32.97;;;22.58;;
5022;SDS011;2530;47.990;7.866;2022-12-10T11:16:54;36.88;;;22.88;;
5022;SDS011;2530;47.990;7.866;2022-12-10T11:19:43;29.63;;;20.60;;
5022;SDS011;2530;47.990;7.866;2022-12-10T11:22:21;29.50;;;21.17;;
5022;SDS011;2530;47.990;7.866;2022-12-10T11:24:57;32.58;;;21.90;;
5022;SDS011;2530;47.990;7.866;2022-12-10T11:30:15;33.67;;;22.17;;
5022;SDS011;2530;47.990;7.866;2022-12-10T11:38:05;34.58;;;23.15;;
5022;SDS011;2530;47.990;7.866;2022-12-10T11:41:02;33.65;;;22.58;;
5022;SDS011;2530;47.990;7.866;2022-12-10T11:46:29;34.90;;;22.42;;
5022;SDS011;2530;47.990;7.866;2022-12-10T11:51:59;28.95;;;19.33;;
5022;SDS011;2530;47.990;7.866;2022-12-10T11:54:54;31.42;;;21.45;;
5022;SDS011;2530;47.990;7.866;2022-12-10T12:00:22;29.58;;;19.90;;
5022;SDS011;2530;47.990;7.866;2022-12-10T12:05:48;27.33;;;18.90;;
5022;SDS011;2530;47.990;7.866;2022-12-10T12:16:39;32.30;;;20.20;;
5022;SDS011;2530;47.990;7.866;2022-12-10T12:19:12;29.40;;;19.87;;
5022;SDS011;2530;47.990;7.866;2022-12-10T12:21:42;28.98;;;20.02;;
5022;SDS011;2530;47.990;7.866;2022-12-10T12:27:29;31.60;;;20.88;;
5022;SDS011;2530;47.990;7.866;2022-12-10T12:32:49;28.27;;;18.77;;
5022;SDS011;2530;47.990;7.866;2022-12-10T12:40:57;26.65;;;19.92;;
5022;SDS011;2530;47.990;7.866;2022-12-10T12:46:02;24.95;;;17.60;;
5022;SDS011;2530;47.990;7.866;2022-12-10T12:51:06;28.77;;;20.70;;
5022;SDS011;2530;47.990;7.866;2022-12-10T12:53:39;30.00;;;21.48;;
5022;SDS011;2530;47.990;7.866;2022-12-10T12:56:12;32.30;;;22.30;;
5022;SDS011;2530;47.990;7.866;2022-12-10T12:58:59;33.50;;;23.50;;
5022;SDS011;2530;47.990;7.866;2022-12-10T13:04:42;32.63;;;22.40;;
5022;SDS011;2530;47.990;7.866;2022-12-10T13:07:09;32.90;;;23.45;;
5022;SDS011;2530;47.990;7.866;2022-12-10T13:09:46;33.20;;;23.23;;
5022;SDS011;2530;47.990;7.866;2022-12-10T13:17:31;30.05;;;21.08;;
5022;SDS011;2530;47.990;7.866;2022-12-10T13:23:00;25.90;;;18.00;;
5022;SDS011;2530;47.990;7.866;2022-12-10T13:36:28;25.75;;;18.80;;
5022;SDS011;2530;47.990;7.866;2022-12-10T13:39:22;24.63;;;18.13;;
5022;SDS011;2530;47.990;7.866;2022-12-10T13:42:42;27.80;;;20.00;;
5022;SDS011;2530;47.990;7.866;2022-12-10T13:47:46;26.77;;;19.75;;
5022;SDS011;2530;47.990;7.866;2022-12-10T13:50:19;30.58;;;21.83;;
5022;SDS011;2530;47.990;7.866;2022-12-10T13:55:38;28.70;;;21.43;;
5022;SDS011;2530;47.990;7.866;2022-12-10T13:58:33;32.88;;;21.27;;
5022;SDS011;2530;47.990;7.866;2022-12-10T14:03:47;30.05;;;20.60;;
5022;SDS011;2530;47.990;7.866;2022-12-10T14:06:23;30.50;;;20.77;;
5022;SDS011;2530;47.990;7.866;2022-12-10T14:11:20;31.10;;;21.65;;
5022;SDS011;2530;47.990;7.866;2022-12-10T14:13:49;30.55;;;21.88;;
5022;SDS011;2530;47.990;7.866;2022-12-10T14:16:18;28.90;;;20.63;;
5022;SDS011;2530;47.990;7.866;2022-12-10T14:18:51;28.75;;;20.45;;
5022;SDS011;2530;47.990;7.866;2022-12-10T14:21:23;28.02;;;19.30;;
5022;SDS011;2530;47.990;7.866;2022-12-10T14:23:49;27.30;;;20.30;;
5022;SDS011;2530;47.990;7.866;2022-12-10T14:26:20;25.15;;;18.65;;
5022;SDS011;2530;47.990;7.866;2022-12-10T14:28:56;29.05;;;20.95;;
5022;SDS011;2530;47.990;7.866;2022-12-10T14:31:35;26.93;;;20.23;;
5022;SDS011;2530;47.990;7.866;2022-12-10T14:34:06;26.45;;;19.40;;
5022;SDS011;2530;47.990;7.866;2022-12-10T14:36:34;27.55;;;20.00;;
5022;SDS011;2530;47.990;7.866;2022-12-10T14:39:04;27.83;;;20.45;;
5022;SDS011;2530;47.990;7.866;2022-12-10T14:41:44;26.73;;;20.80;;
5022;SDS011;2530;47.990;7.866;2022-12-10T14:44:12;25.33;;;18.35;;
5022;SDS011;2530;47.990;7.866;2022-12-10T14:46:40;23.60;;;18.23;;
5022;SDS011;2530;47.990;7.866;2022-12-10T14:49:07;25.30;;;19.10;;
5022;SDS011;2530;47.990;7.866;2022-12-10T14:51:38;26.60;;;20.42;;
5022;SDS011;2530;47.990;7.866;2022-12-10T14:54:04;27.75;;;19.95;;
5022;SDS011;2530;47.990;7.866;2022-12-10T14:56:56;27.00;;;21.08;;
5022;SDS011;2530;47.990;7.866;2022-12-10T14:59:32;28.15;;;21.38;;
5022;SDS011;2530;47.990;7.866;2022-12-10T15:02:28;27.50;;;20.15;;
5022;SDS011;2530;47.990;7.866;2022-12-10T15:04:53;26.70;;;20.33;;
5022;SDS011;2530;47.990;7.866;2022-12-10T15:07:20;29.20;;;21.63;;
5022;SDS011;2530;47.990;7.866;2022-12-10T15:09:52;30.98;;;22.70;;
5022;SDS011;2530;47.990;7.866;2022-12-10T15:12:27;28.20;;;20.67;;
5022;SDS011;2530;47.990;7.866;2022-12-10T15:17:43;30.38;;;22.10;;
5022;SDS011;2530;47.990;7.866;2022-12-10T15:20:20;28.20;;;21.42;;
5022;SDS011;2530;47.990;7.866;2022-12-10T15:22:48;30.67;;;21.65;;
5022;SDS011;2530;47.990;7.866;2022-12-10T15:25:25;28.73;;;22.07;;
5022;SDS011;2530;47.990;7.866;2022-12-10T15:27:55;29.08;;;21.67;;
5022;SDS011;2530;47.990;7.866;2022-12-10T15:30:56;30.88;;;22.63;;
5022;SDS011;2530;47.990;7.866;2022-12-10T15:35:57;29.08;;;20.65;;
5022;SDS011;2530;47.990;7.866;2022-12-10T15:38:24;29.38;;;20.98;;
5022;SDS011;2530;47.990;7.866;2022-12-10T15:40:51;30.02;;;22.52;;
5022;SDS011;2530;47.990;7.866;2022-12-10T15:43:27;32.03;;;22.70;;
5022;SDS011;2530;47.990;7.866;2022-12-10T15:45:54;31.27;;;22.60;;
5022;SDS011;2530;47.990;7.866;2022-12-10T15:48:21;30.13;;;22.63;;
5022;SDS011;2530;47.990;7.866;2022-12-10T15:50:48;28.83;;;22.60;;
5022;SDS011;2530;47.990;7.866;2022-12-10T15:53:24;26.92;;;20.65;;
5022;SDS011;2530;47.990;7.866;2022-12-10T15:55:52;28.75;;;21.98;;
5022;SDS011;2530;47.990;7.866;2022-12-10T15:58:18;31.02;;;22.00;;
5022;SDS011;2530;47.990;7.866;2022-12-10T16:00:43;32.23;;;23.50;;
5022;SDS011;2530;47.990;7.866;2022-12-10T16:03:12;28.55;;;21.65;;
5022;SDS011;2530;47.990;7.866;2022-12-10T16:05:43;29.88;;;23.55;;
5022;SDS011;2530;47.990;7.866;2022-12-10T16:08:23;31.60;;;21.80;;
5022;SDS011;2530;47.990;7.866;2022-12-10T16:10:52;30.92;;;22.48;;
5022;SDS011;2530;47.990;7.866;2022-12-10T16:13:21;29.88;;;21.60;;
5022;SDS011;2530;47.990;7.866;2022-12-10T16:15:55;33.22;;;23.50;;
5022;SDS011;2530;47.990;7.866;2022-12-10T16:18:24;28.88;;;23.05;;
5022;SDS011;2530;47.990;7.866;2022-12-10T16:20:50;31.60;;;23.10;;
5022;SDS011;2530;47.990;7.866;2022-12-10T16:23:16;31.20;;;23.98;;
5022;SDS011;2530;47.990;7.866;2022-12-10T16:25:42;31.73;;;22.58;;
5022;SDS011;2530;47.990;7.866;2022-12-10T16:28:12;30.40;;;22.52;;
5022;SDS011;2530;47.990;7.866;2022-12-10T16:30:43;32.45;;;23.98;;
5022;SDS011;2530;47.990;7.866;2022-12-10T16:33:10;31.67;;;22.85;;
5022;SDS011;2530;47.990;7.866;2022-12-10T16:35:36;32.03;;;24.20;;
5022;SDS011;2530;47.990;7.866;2022-12-10T16:38:02;27.13;;;20.00;;
5022;SDS011;2530;47.990;7.866;2022-12-10T16:40:29;26.27;;;20.13;;
5022;SDS011;2530;47.990;7.866;2022-12-10T16:42:55;26.63;;;21.00;;
5022;SDS011;2530;47.990;7.866;2022-12-10T16:45:25;27.52;;;20.95;;
5022;SDS011;2530;47.990;7.866;2022-12-10T16:47:53;26.53;;;20.13;;
5022;SDS011;2530;47.990;7.866;2022-12-10T16:50:18;25.95;;;19.95;;
5022;SDS011;2530;47.990;7.866;2022-12-10T16:52:45;25.00;;;19.17;;
5022;SDS011;2530;47.990;7.866;2022-12-10T16:55:13;28.52;;;21.00;;
5022;SDS011;2530;47.990;7.866;2022-12-10T16:57:40;25.63;;;18.45;;
5022;SDS011;2530;47.990;7.866;2022-12-10T17:00:06;26.65;;;20.15;;